Time;durP1;ratioP1;P1;durP2;ratioP2;P2;SDS_P1;SDS_P2;PMS_P1;PMS_P2;Temp;Humidity;BMP_temperature;BMP_pressure;BME280_temperature;BME280_humidity;BME280_pressure;Samples;Min_cycle;Max_cycle;Signal;HPM_P1;HPM_P2
2022/08/09 00:01:13;;;;;;;0.00;0.00;;;11.10;99.90;;;;;;4972528;29;20090;-74
2022/08/09 00:03:39;;;;;;;0.17;0.15;;;11.00;99.90;;;;;;4990009;28;20095;-74
2022/08/09 00:06:04;;;;;;;0.00;0.00;;;10.90;99.90;;;;;;4992268;28;20066;-74
2022/08/09 00:08:30;;;;;;;0.10;0.08;;;10.90;99.90;;;;;;4991505;28;20062;-74
2022/08/09 00:10:56;;;;;;;0.15;0.10;;;11.00;99.90;;;;;;4992979;28;20043;-75
2022/08/09 00:13:21;;;;;;;0.00;0.00;;;11.10;99.90;;;;;;4977102;28;20048;-74
2022/08/09 00:15:47;;;;;;;0.03;0.03;;;11.20;99.90;;;;;;4974836;28;20062;-74
2022/08/09 00:18:13;;;;;;;0.00;0.00;;;11.30;99.90;;;;;;4974411;28;20065;-74
2022/08/09 00:20:39;;;;;;;0.03;0.03;;;11.20;99.90;;;;;;4976149;29;20046;-74
2022/08/09 00:23:04;;;;;;;0.40;0.10;;;11.40;99.90;;;;;;4987797;28;20050;-74
2022/08/09 00:25:30;;;;;;;0.17;0.17;;;11.20;99.90;;;;;;4995745;28;20070;-74
2022/08/09 00:27:55;;;;;;;0.13;0.05;;;11.10;99.90;;;;;;4995877;28;20035;-74
2022/08/09 00:30:21;;;;;;;0.20;0.20;;;11.00;99.90;;;;;;4995566;28;20053;-74
2022/08/09 00:32:47;;;;;;;0.00;0.00;;;10.90;99.90;;;;;;4984321;28;20043;-74
2022/08/09 00:35:12;;;;;;;0.00;0.00;;;10.80;99.90;;;;;;4976525;29;20086;-74
2022/08/09 00:37:38;;;;;;;0.00;0.00;;;10.80;99.90;;;;;;4978862;28;20069;-74
2022/08/09 00:40:04;;;;;;;0.10;0.10;;;10.80;99.90;;;;;;4996808;28;20042;-74
2022/08/09 00:42:30;;;;;;;0.00;0.00;;;10.80;99.90;;;;;;4988653;28;20039;-74
2022/08/09 00:44:55;;;;;;;0.00;0.00;;;10.70;99.90;;;;;;4977072;29;20067;-75
2022/08/09 00:47:22;;;;;;;0.08;0.08;;;10.60;99.90;;;;;;4977376;29;20558;-74
2022/08/09 00:49:47;;;;;;;0.00;0.00;;;10.60;99.90;;;;;;4993280;28;20456;-74
2022/08/09 00:52:13;;;;;;;0.55;0.55;;;10.50;99.90;;;;;;4994803;28;20042;-73
2022/08/09 00:54:39;;;;;;;0.13;0.10;;;10.50;99.90;;;;;;4995735;28;20062;-75
2022/08/09 00:57:05;;;;;;;0.00;0.00;;;10.40;99.90;;;;;;4995806;28;20078;-74
2022/08/09 00:59:30;;;;;;;0.00;0.00;;;10.40;99.90;;;;;;4994069;28;20050;-75
2022/08/09 01:02:00;;;;;;;0.00;0.00;;;10.40;99.90;;;;;;4991861;28;20047;-74
2022/08/09 01:04:28;;;;;;;0.00;0.00;;;10.40;99.90;;;;;;4974563;28;20046;-74
2022/08/09 01:07:02;;;;;;;0.00;0.00;;;10.30;99.90;;;;;;4975631;29;20051;-74
2022/08/09 01:09:52;;;;;;;0.00;0.00;;;10.30;99.90;;;;;;4976197;29;20063;-74
2022/08/09 01:12:30;;;;;;;0.00;0.00;;;10.40;99.90;;;;;;4976726;28;20062;-74
2022/08/09 01:15:05;;;;;;;0.20;0.20;;;10.30;99.90;;;;;;4975732;29;20106;-74
2022/08/09 01:17:48;;;;;;;0.10;0.10;;;10.40;99.90;;;;;;4975550;29;20043;-74
2022/08/09 01:20:38;;;;;;;0.35;0.32;;;10.30;99.90;;;;;;4975140;29;20107;-74
2022/08/09 01:23:21;;;;;;;0.00;0.00;;;10.30;99.90;;;;;;4986722;28;20045;-73
2022/08/09 01:26:25;;;;;;;4.05;1.65;;;10.20;99.90;;;;;;4994507;28;20051;-74
2022/08/09 01:28:55;;;;;;;0.28;0.28;;;10.20;99.90;;;;;;4995392;28;20078;-74
2022/08/09 01:31:25;;;;;;;0.00;0.00;;;10.20;99.90;;;;;;4995641;28;20043;-74
2022/08/09 01:33:53;;;;;;;0.00;0.00;;;10.20;99.90;;;;;;4977363;28;20055;-74
2022/08/09 01:36:21;;;;;;;0.00;0.00;;;10.10;99.90;;;;;;4975848;29;20039;-74
2022/08/09 01:38:49;;;;;;;0.00;0.00;;;10.10;99.90;;;;;;4976243;29;20051;-74
2022/08/09 01:41:19;;;;;;;0.03;0.03;;;10.30;99.90;;;;;;4975979;29;20043;-74
2022/08/09 01:43:48;;;;;;;0.08;0.08;;;10.30;99.90;;;;;;4991736;28;20042;-73
2022/08/09 01:46:15;;;;;;;0.00;0.00;;;10.30;99.90;;;;;;4992865;28;20062;-74
2022/08/09 01:48:42;;;;;;;0.00;0.00;;;10.20;99.90;;;;;;4993783;28;20045;-74
2022/08/09 01:51:09;;;;;;;0.00;0.00;;;10.20;99.90;;;;;;4993893;28;20046;-73
2022/08/09 01:53:36;;;;;;;0.05;0.05;;;10.20;99.90;;;;;;4979915;28;20043;-73
2022/08/09 01:56:02;;;;;;;0.00;0.00;;;10.00;99.90;;;;;;4975976;29;20111;-76
2022/08/09 01:58:29;;;;;;;0.00;0.00;;;10.00;99.90;;;;;;4991142;28;20051;-73
2022/08/09 02:00:57;;;;;;;0.15;0.10;;;9.90;99.90;;;;;;4988690;28;20038;-74
2022/08/09 02:03:23;;;;;;;0.00;0.00;;;9.90;99.90;;;;;;4993334;28;20034;-74
2022/08/09 02:05:53;;;;;;;0.00;0.00;;;9.90;99.90;;;;;;4995275;28;20047;-74
2022/08/09 02:08:21;;;;;;;2.10;0.10;;;9.80;99.90;;;;;;4994667;28;20057;-74
2022/08/09 02:10:49;;;;;;;0.00;0.00;;;9.80;99.90;;;;;;4995195;28;20078;-74
2022/08/09 02:13:16;;;;;;;0.00;0.00;;;9.70;99.90;;;;;;4994312;28;20043;-74
2022/08/09 02:15:47;;;;;;;0.00;0.00;;;9.70;99.90;;;;;;4994346;28;20042;-74
2022/08/09 02:18:18;;;;;;;0.00;0.00;;;9.70;99.90;;;;;;4995317;28;20058;-74
2022/08/09 02:20:48;;;;;;;0.00;0.00;;;9.60;99.90;;;;;;4995238;28;20039;-74
2022/08/09 02:23:20;;;;;;;0.00;0.00;;;9.60;99.90;;;;;;4994861;28;20039;-74
2022/08/09 02:25:49;;;;;;;0.43;0.30;;;9.60;99.90;;;;;;4996049;28;20039;-75
2022/08/09 02:28:36;;;;;;;0.00;0.00;;;9.50;99.90;;;;;;4994227;28;20047;-73
2022/08/09 02:31:09;;;;;;;0.00;0.00;;;9.60;99.90;;;;;;4993813;28;20042;-74
2022/08/09 02:33:40;;;;;;;0.00;0.00;;;9.60;99.90;;;;;;4991638;28;20054;-73
2022/08/09 02:36:09;;;;;;;0.00;0.00;;;9.50;99.90;;;;;;4994110;28;20038;-74
2022/08/09 02:38:44;;;;;;;0.00;0.00;;;9.50;99.90;;;;;;4993217;28;20066;-74
2022/08/09 02:41:18;;;;;;;0.00;0.00;;;9.50;99.90;;;;;;4980715;28;20054;-74
2022/08/09 02:43:45;;;;;;;0.00;0.00;;;9.50;99.90;;;;;;4975741;28;20047;-74
2022/08/09 02:46:13;;;;;;;0.00;0.00;;;9.50;99.90;;;;;;4973937;29;20054;-74
2022/08/09 02:48:40;;;;;;;0.00;0.00;;;9.60;99.90;;;;;;4974701;29;20047;-75
2022/08/09 02:51:10;;;;;;;0.10;0.10;;;9.60;99.90;;;;;;4973994;28;20047;-74
2022/08/09 02:53:45;;;;;;;0.03;0.03;;;9.80;99.90;;;;;;4974044;28;20042;-73
2022/08/09 02:56:12;;;;;;;0.35;0.35;;;9.90;99.90;;;;;;4974654;29;20035;-74
2022/08/09 02:58:40;;;;;;;0.20;0.20;;;9.80;99.90;;;;;;4974620;29;20042;-74
2022/08/09 03:01:06;;;;;;;0.20;0.10;;;9.80;99.90;;;;;;4974101;28;20047;-74
2022/08/09 03:03:34;;;;;;;0.00;0.00;;;9.80;99.90;;;;;;4989772;28;20094;-74
2022/08/09 03:06:00;;;;;;;1.65;0.75;;;9.80;99.90;;;;;;4994340;28;20062;-74
2022/08/09 03:08:27;;;;;;;0.00;0.00;;;9.80;99.90;;;;;;4994102;28;20070;-73
2022/08/09 03:10:54;;;;;;;1.65;0.40;;;9.90;99.90;;;;;;4978953;28;20043;-74
2022/08/09 03:13:21;;;;;;;0.35;0.32;;;10.00;99.90;;;;;;4987074;28;20053;-74
2022/08/09 03:15:47;;;;;;;0.22;0.20;;;10.10;99.90;;;;;;4993370;28;20039;-74
2022/08/09 03:18:13;;;;;;;0.52;0.52;;;10.00;99.90;;;;;;4992548;28;20425;-74
2022/08/09 03:20:41;;;;;;;0.00;0.00;;;10.00;99.90;;;;;;4991581;28;20066;-74
2022/08/09 03:23:08;;;;;;;0.00;0.00;;;9.90;99.90;;;;;;4991305;28;20042;-74
2022/08/09 03:25:35;;;;;;;0.00;0.00;;;10.00;99.90;;;;;;4992054;28;20039;-75
2022/08/09 03:28:03;;;;;;;0.00;0.00;;;10.00;99.90;;;;;;4991855;28;20078;-74
2022/08/09 03:30:29;;;;;;;0.13;0.08;;;9.90;99.90;;;;;;4991044;28;20077;-74
2022/08/09 03:32:57;;;;;;;0.00;0.00;;;9.90;99.90;;;;;;4990879;28;20081;-74
2022/08/09 03:35:24;;;;;;;0.00;0.00;;;9.80;99.90;;;;;;4991273;28;20069;-74
2022/08/09 03:37:50;;;;;;;0.00;0.00;;;9.80;99.90;;;;;;4991803;28;20047;-74
2022/08/09 03:40:16;;;;;;;0.50;0.43;;;10.00;99.90;;;;;;4991431;28;20054;-74
2022/08/09 03:42:41;;;;;;;0.60;0.43;;;10.10;99.90;;;;;;4983503;28;20050;-74
2022/08/09 03:45:07;;;;;;;0.10;0.10;;;10.20;99.90;;;;;;4972071;29;20054;-74
2022/08/09 03:47:33;;;;;;;0.00;0.00;;;10.20;99.90;;;;;;4972079;29;20050;-74
2022/08/09 03:50:01;;;;;;;0.70;0.32;;;10.20;99.90;;;;;;4975356;28;20058;-75
2022/08/09 03:52:28;;;;;;;0.00;0.00;;;10.20;99.90;;;;;;4982305;28;20038;-74
2022/08/09 03:54:56;;;;;;;0.10;0.10;;;10.20;99.90;;;;;;4994875;28;20042;-74
2022/08/09 03:57:21;;;;;;;0.00;0.00;;;10.10;99.90;;;;;;4994854;28;20051;-74
2022/08/09 03:59:50;;;;;;;0.52;0.13;;;10.10;99.90;;;;;;4993677;28;20038;-74
2022/08/09 04:02:17;;;;;;;0.32;0.32;;;10.10;99.90;;;;;;4991136;28;20054;-73
2022/08/09 04:04:42;;;;;;;0.00;0.00;;;10.30;99.90;;;;;;4975743;29;20043;-75
2022/08/09 04:07:08;;;;;;;0.10;0.10;;;10.20;99.90;;;;;;4976216;29;20062;-74
2022/08/09 04:09:34;;;;;;;0.35;0.30;;;10.30;99.90;;;;;;4975429;28;20530;-74
2022/08/09 04:12:08;;;;;;;0.52;0.47;;;10.30;99.90;;;;;;4975270;28;20041;-75
2022/08/09 04:14:35;;;;;;;0.20;0.20;;;10.30;99.90;;;;;;4994788;28;20130;-74
2022/08/09 04:17:00;;;;;;;0.00;0.00;;;10.30;99.90;;;;;;4995199;28;20058;-74
2022/08/09 04:19:26;;;;;;;0.28;0.20;;;10.50;99.90;;;;;;4993613;28;20102;-76
2022/08/09 04:21:51;;;;;;;0.00;0.00;;;10.20;99.90;;;;;;4993906;28;20039;-73
2022/08/09 04:24:17;;;;;;;0.10;0.10;;;10.10;99.90;;;;;;4993352;28;20103;-74
2022/08/09 04:26:43;;;;;;;0.00;0.00;;;10.10;99.90;;;;;;4994583;28;20050;-75
2022/08/09 04:29:09;;;;;;;0.00;0.00;;;10.10;99.90;;;;;;4994390;28;20057;-74
2022/08/09 04:31:34;;;;;;;0.00;0.00;;;10.10;99.90;;;;;;4977137;28;20047;-74
2022/08/09 04:34:00;;;;;;;0.25;0.20;;;10.10;99.90;;;;;;4985797;28;20053;-73
2022/08/09 04:36:31;;;;;;;0.00;0.00;;;10.20;99.90;;;;;;4993488;28;20043;-74
2022/08/09 04:39:03;;;;;;;0.00;0.00;;;10.20;99.90;;;;;;4991463;28;20074;-74
2022/08/09 04:41:29;;;;;;;0.00;0.00;;;10.30;99.90;;;;;;4973206;29;20079;-74
2022/08/09 04:43:56;;;;;;;0.28;0.17;;;10.30;99.90;;;;;;4975954;28;20042;-74
2022/08/09 04:46:21;;;;;;;0.35;0.20;;;10.40;99.90;;;;;;4974895;28;20047;-73
2022/08/09 04:48:47;;;;;;;0.00;0.00;;;10.40;99.90;;;;;;4974672;28;20124;-75
2022/08/09 04:51:13;;;;;;;0.13;0.10;;;10.40;99.90;;;;;;4973824;29;20043;-74
2022/08/09 04:53:39;;;;;;;0.00;0.00;;;10.40;99.90;;;;;;4989409;28;20043;-74
2022/08/09 04:56:05;;;;;;;0.00;0.00;;;10.40;99.90;;;;;;4993129;28;20055;-75
2022/08/09 04:58:32;;;;;;;0.00;0.00;;;10.40;99.90;;;;;;4993158;28;20082;-73
2022/08/09 05:00:59;;;;;;;0.00;0.00;;;10.50;99.90;;;;;;4992522;28;20039;-74
2022/08/09 05:03:24;;;;;;;0.00;0.00;;;10.60;99.90;;;;;;4979509;28;20043;-74
2022/08/09 05:05:50;;;;;;;0.00;0.00;;;10.60;99.90;;;;;;4974277;29;20490;-73
2022/08/09 05:08:16;;;;;;;0.10;0.10;;;10.90;99.90;;;;;;4975099;29;20047;-75
2022/08/09 05:10:42;;;;;;;0.00;0.00;;;11.00;99.90;;;;;;4974975;28;20494;-74
2022/08/09 05:13:08;;;;;;;0.00;0.00;;;11.00;99.90;;;;;;4986170;28;20057;-75
2022/08/09 05:15:34;;;;;;;0.00;0.00;;;11.20;99.90;;;;;;4982089;28;20496;-74
2022/08/09 05:17:59;;;;;;;0.00;0.00;;;11.30;99.90;;;;;;4977319;28;20213;-74
2022/08/09 05:20:25;;;;;;;0.13;0.08;;;11.50;99.90;;;;;;4970781;28;20101;-74
2022/08/09 05:22:52;;;;;;;0.30;0.15;;;11.60;99.90;;;;;;4981626;28;20137;-74
2022/08/09 05:25:18;;;;;;;0.10;0.10;;;11.70;99.90;;;;;;4988495;28;20066;-76
2022/08/09 05:27:44;;;;;;;0.00;0.00;;;11.90;99.90;;;;;;4990462;28;20046;-74
2022/08/09 05:30:10;;;;;;;0.15;0.15;;;12.50;99.90;;;;;;4988802;28;20035;-74
2022/08/09 05:32:36;;;;;;;0.20;0.10;;;12.20;99.90;;;;;;4991690;28;20047;-75
2022/08/09 05:35:01;;;;;;;0.00;0.00;;;12.50;99.90;;;;;;4992607;28;20500;-74
2022/08/09 05:37:27;;;;;;;0.15;0.05;;;12.70;99.90;;;;;;4991311;28;20066;-75
2022/08/09 05:39:52;;;;;;;1.00;0.52;;;13.00;99.90;;;;;;4992661;28;20074;-75
2022/08/09 05:42:18;;;;;;;0.00;0.00;;;13.30;99.90;;;;;;4991063;28;20049;-76
2022/08/09 05:44:43;;;;;;;0.17;0.15;;;13.40;99.90;;;;;;4992357;28;20054;-74
2022/08/09 05:47:09;;;;;;;0.35;0.17;;;13.50;99.90;;;;;;4991374;28;20097;-75
2022/08/09 05:49:34;;;;;;;0.10;0.10;;;13.70;99.90;;;;;;4989615;28;20039;-75
2022/08/09 05:52:00;;;;;;;0.60;0.15;;;13.80;99.90;;;;;;4990759;28;20051;-76
2022/08/09 05:54:26;;;;;;;0.35;0.35;;;14.00;99.90;;;;;;4989825;28;20054;-74
2022/08/09 05:56:51;;;;;;;0.30;0.28;;;14.10;99.90;;;;;;4990209;28;20054;-75
2022/08/09 05:59:18;;;;;;;0.57;0.55;;;14.40;99.90;;;;;;4988151;28;20074;-74
2022/08/09 06:01:44;;;;;;;1.23;0.40;;;14.60;99.90;;;;;;4988908;28;20050;-75
2022/08/09 06:04:09;;;;;;;0.30;0.28;;;14.60;99.90;;;;;;4988600;28;20062;-74
2022/08/09 06:06:35;;;;;;;0.22;0.22;;;14.70;99.90;;;;;;4986837;28;20057;-75
2022/08/09 06:09:01;;;;;;;0.25;0.20;;;14.90;99.90;;;;;;4986361;28;20054;-75
2022/08/09 06:11:26;;;;;;;0.90;0.65;;;15.10;99.90;;;;;;4987026;28;20046;-74
2022/08/09 06:13:52;;;;;;;0.95;0.82;;;15.50;99.90;;;;;;4985550;28;20046;-73
2022/08/09 06:16:18;;;;;;;0.35;0.32;;;16.10;99.90;;;;;;4985781;28;20039;-73
2022/08/09 06:18:43;;;;;;;0.40;0.35;;;16.40;99.90;;;;;;4985022;28;20070;-73
2022/08/09 06:21:09;;;;;;;0.52;0.38;;;17.00;99.90;;;;;;4985901;28;20131;-73
2022/08/09 06:23:34;;;;;;;1.83;0.85;;;17.20;99.90;;;;;;4985812;28;20113;-74
2022/08/09 06:26:00;;;;;;;0.10;0.10;;;17.50;99.90;;;;;;4987040;28;20057;-74
2022/08/09 06:28:26;;;;;;;0.10;0.10;;;17.80;99.90;;;;;;4986825;28;20042;-73
2022/08/09 06:30:51;;;;;;;1.02;0.73;;;18.30;99.90;;;;;;4988186;28;20047;-73
2022/08/09 06:33:17;;;;;;;1.95;0.75;;;18.80;99.90;;;;;;4987692;28;20049;-74
2022/08/09 06:35:42;;;;;;;0.43;0.32;;;19.40;99.90;;;;;;4985233;28;20051;-74
2022/08/09 06:38:08;;;;;;;0.38;0.30;;;20.00;99.90;;;;;;4985135;28;20047;-74
2022/08/09 06:40:34;;;;;;;0.30;0.28;;;20.10;99.90;;;;;;4984646;28;20515;-74
2022/08/09 06:43:02;;;;;;;0.00;0.00;;;20.40;99.90;;;;;;4983293;28;20043;-74
2022/08/09 06:45:28;;;;;;;0.32;0.30;;;21.00;99.90;;;;;;4982771;28;20043;-74
2022/08/09 06:47:53;;;;;;;0.35;0.35;;;21.40;99.90;;;;;;4983375;28;20043;-74
2022/08/09 06:50:19;;;;;;;0.45;0.30;;;21.90;99.90;;;;;;4981575;28;20469;-74
2022/08/09 06:52:45;;;;;;;0.10;0.10;;;22.00;99.90;;;;;;4981820;28;20135;-74
2022/08/09 06:55:12;;;;;;;0.30;0.22;;;22.10;99.90;;;;;;4981530;28;20397;-74
2022/08/09 06:57:39;;;;;;;0.20;0.20;;;22.40;99.90;;;;;;4979455;28;20062;-74
2022/08/09 07:00:05;;;;;;;0.17;0.15;;;22.40;99.90;;;;;;4980289;28;20067;-74
2022/08/09 07:02:31;;;;;;;0.40;0.30;;;22.70;99.90;;;;;;4980393;28;20038;-75
2022/08/09 07:04:57;;;;;;;0.10;0.10;;;23.00;99.90;;;;;;4980967;28;20089;-75
2022/08/09 07:07:22;;;;;;;0.35;0.20;;;23.10;99.90;;;;;;4980600;28;20046;-75
2022/08/09 07:09:48;;;;;;;0.40;0.40;;;22.90;99.90;;;;;;4981876;28;20047;-75
2022/08/09 07:12:14;;;;;;;0.32;0.32;;;23.00;99.90;;;;;;4979522;28;20046;-75
2022/08/09 07:14:39;;;;;;;0.68;0.38;;;23.30;99.90;;;;;;4980278;28;20043;-75
2022/08/09 07:17:05;;;;;;;0.00;0.00;;;23.20;99.90;;;;;;4979206;28;20042;-74
2022/08/09 07:19:30;;;;;;;0.45;0.43;;;23.90;99.90;;;;;;4979913;28;20047;-75
2022/08/09 07:21:56;;;;;;;0.30;0.30;;;24.10;99.40;;;;;;4978604;28;20042;-74
2022/08/09 07:24:21;;;;;;;0.45;0.32;;;24.50;94.20;;;;;;4978835;28;20050;-74
2022/08/09 07:26:47;;;;;;;6.57;0.75;;;24.20;93.70;;;;;;4979694;28;20042;-74
2022/08/09 07:29:13;;;;;;;1.27;0.63;;;24.50;91.20;;;;;;4979002;28;20046;-74
2022/08/09 07:31:39;;;;;;;0.17;0.17;;;24.90;85.20;;;;;;4978889;28;20439;-75
2022/08/09 07:34:04;;;;;;;0.00;0.00;;;24.90;78.10;;;;;;4976645;28;20066;-75
2022/08/09 07:36:31;;;;;;;0.00;0.00;;;25.40;76.30;;;;;;4979895;28;20053;-76
2022/08/09 07:38:58;;;;;;;1.95;0.80;;;25.20;68.30;;;;;;4976097;28;20055;-75
2022/08/09 07:41:24;;;;;;;0.05;0.05;;;25.20;72.40;;;;;;4979157;28;20059;-75
2022/08/09 07:43:49;;;;;;;0.35;0.20;;;25.00;67.90;;;;;;4977723;28;20065;-74
2022/08/09 07:46:15;;;;;;;0.00;0.00;;;25.50;65.90;;;;;;4975440;28;20058;-75
2022/08/09 07:48:40;;;;;;;0.00;0.00;;;25.10;71.20;;;;;;4972620;28;20049;-75
2022/08/09 07:51:06;;;;;;;0.08;0.05;;;25.50;63.10;;;;;;4976182;28;20051;-75
2022/08/09 07:53:34;;;;;;;0.10;0.10;;;25.70;61.50;;;;;;4976801;28;20042;-75
2022/08/09 07:55:59;;;;;;;0.00;0.00;;;25.70;57.70;;;;;;4977069;28;20126;-74
2022/08/09 07:58:25;;;;;;;0.00;0.00;;;25.20;59.70;;;;;;4973778;28;20094;-74
2022/08/09 08:00:51;;;;;;;0.25;0.20;;;24.80;64.10;;;;;;4974786;28;20102;-74
2022/08/09 08:03:16;;;;;;;0.43;0.22;;;25.20;68.80;;;;;;4974560;28;20082;-74
2022/08/09 08:05:42;;;;;;;0.10;0.10;;;24.60;71.50;;;;;;4973572;28;20113;-74
2022/08/09 08:08:08;;;;;;;0.43;0.25;;;24.60;72.10;;;;;;4976070;28;20046;-75
2022/08/09 08:10:34;;;;;;;0.00;0.00;;;24.90;73.20;;;;;;4978787;28;20043;-75
2022/08/09 08:13:00;;;;;;;0.15;0.10;;;26.20;56.50;;;;;;4977896;28;20042;-74
2022/08/09 08:15:26;;;;;;;0.85;0.55;;;26.40;47.40;;;;;;4980030;28;20122;-73
2022/08/09 08:17:52;;;;;;;0.25;0.20;;;27.30;30.70;;;;;;4978347;28;20471;-73
2022/08/09 08:20:19;;;;;;;0.57;0.30;;;27.10;36.80;;;;;;4978505;28;20106;-73
2022/08/09 08:22:45;;;;;;;1.30;0.40;;;26.00;24.00;;;;;;4977301;28;20123;-73
2022/08/09 08:25:10;;;;;;;0.15;0.10;;;24.90;33.40;;;;;;4976207;28;20458;-74
2022/08/09 08:27:36;;;;;;;0.45;0.32;;;24.50;45.90;;;;;;4977961;28;20046;-74
2022/08/09 08:30:02;;;;;;;0.00;0.00;;;23.40;58.20;;;;;;4975749;28;20122;-73
2022/08/09 08:32:29;;;;;;;0.30;0.20;;;23.10;64.10;;;;;;4976355;28;20058;-74
2022/08/09 08:34:59;;;;;;;0.00;0.00;;;23.70;68.30;;;;;;4977641;28;20098;-75
2022/08/09 08:37:28;;;;;;;0.00;0.00;;;23.90;55.10;;;;;;4978538;28;20038;-74
2022/08/09 08:39:54;;;;;;;0.00;0.00;;;23.60;52.60;;;;;;4978909;28;20504;-73
2022/08/09 08:42:20;;;;;;;0.10;0.10;;;23.00;59.30;;;;;;4978532;28;20038;-73
2022/08/09 08:44:51;;;;;;;1.13;0.30;;;22.60;72.00;;;;;;4978503;28;20059;-73
2022/08/09 08:47:17;;;;;;;0.30;0.17;;;22.50;80.60;;;;;;4977592;28;20054;-73
2022/08/09 08:49:43;;;;;;;0.00;0.00;;;22.30;90.20;;;;;;4978557;28;20047;-73
2022/08/09 08:52:09;;;;;;;0.00;0.00;;;22.30;90.40;;;;;;4977873;28;20038;-73
2022/08/09 08:54:34;;;;;;;0.28;0.20;;;22.20;93.90;;;;;;4978058;28;20048;-73
2022/08/09 08:57:01;;;;;;;0.00;0.00;;;22.10;95.80;;;;;;4978096;28;20055;-73
2022/08/09 08:59:27;;;;;;;0.00;0.00;;;21.90;98.40;;;;;;4977126;28;20109;-73
2022/08/09 09:01:53;;;;;;;0.00;0.00;;;21.80;96.00;;;;;;4978459;28;20043;-73
2022/08/09 09:04:21;;;;;;;0.20;0.13;;;21.60;95.00;;;;;;4978214;28;20158;-74
2022/08/09 09:06:47;;;;;;;0.98;0.40;;;21.70;94.70;;;;;;4979104;28;20121;-73
2022/08/09 09:09:15;;;;;;;1.65;0.52;;;22.10;94.00;;;;;;4979592;28;20077;-73
2022/08/09 09:11:41;;;;;;;0.00;0.00;;;22.50;93.40;;;;;;4980366;28;20050;-73
2022/08/09 09:14:18;;;;;;;0.00;0.00;;;22.80;90.00;;;;;;4979747;28;20077;-73
2022/08/09 09:16:44;;;;;;;0.75;0.22;;;24.20;74.30;;;;;;4979934;28;20066;-75
2022/08/09 09:19:11;;;;;;;0.00;0.00;;;25.60;47.50;;;;;;4977832;28;20078;-73
2022/08/09 09:21:54;;;;;;;0.08;0.08;;;26.00;31.80;;;;;;4975855;28;20140;-75
2022/08/09 09:24:27;;;;;;;0.00;0.00;;;26.60;25.50;;;;;;4975682;28;20078;-75
2022/08/09 09:26:55;;;;;;;0.00;0.00;;;26.00;18.80;;;;;;4975482;28;20334;-74
2022/08/09 09:29:35;;;;;;;0.00;0.00;;;25.90;23.30;;;;;;4977184;28;20043;-74
2022/08/09 09:32:01;;;;;;;0.08;0.05;;;26.50;26.80;;;;;;4978230;28;20107;-74
2022/08/09 09:34:27;;;;;;;0.00;0.00;;;26.90;25.60;;;;;;4978955;28;20039;-74
2022/08/09 09:36:54;;;;;;;0.00;0.00;;;27.40;17.50;;;;;;4978711;28;20057;-74
2022/08/09 09:39:21;;;;;;;0.00;0.00;;;27.30;13.60;;;;;;4978917;28;20074;-75
2022/08/09 09:41:47;;;;;;;0.30;0.15;;;27.70;11.30;;;;;;4980296;28;20061;-74
2022/08/09 09:44:18;;;;;;;0.10;0.10;;;27.80;12.20;;;;;;4979272;28;20050;-74
2022/08/09 09:46:43;;;;;;;0.00;0.00;;;28.00;13.10;;;;;;4980185;28;20050;-75
2022/08/09 09:49:11;;;;;;;0.43;0.25;;;27.60;16.30;;;;;;4979908;28;20129;-74
2022/08/09 09:51:38;;;;;;;0.00;0.00;;;27.60;9.70;;;;;;4978647;28;20049;-74
2022/08/09 09:54:21;;;;;;;0.00;0.00;;;27.60;12.40;;;;;;4981618;28;20050;-74
2022/08/09 09:56:49;;;;;;;0.00;0.00;;;27.60;11.20;;;;;;4979367;28;20058;-75
2022/08/09 09:59:23;;;;;;;0.00;0.00;;;27.40;14.10;;;;;;4977952;28;20502;-76
2022/08/09 10:01:58;;;;;;;0.10;0.08;;;27.40;10.30;;;;;;4978266;28;20058;-73
2022/08/09 10:04:24;;;;;;;0.03;0.03;;;27.20;9.20;;;;;;4980210;28;20050;-74
2022/08/09 10:06:50;;;;;;;0.05;0.00;;;26.90;13.00;;;;;;4978255;28;20047;-73
2022/08/09 10:09:15;;;;;;;0.00;0.00;;;25.80;18.10;;;;;;4976597;28;20342;-76
2022/08/09 10:11:42;;;;;;;0.00;0.00;;;25.60;25.60;;;;;;4977143;28;20398;-74
2022/08/09 10:14:29;;;;;;;0.00;0.00;;;25.50;28.50;;;;;;4977998;28;20101;-73
2022/08/09 10:16:55;;;;;;;0.00;0.00;;;25.50;27.20;;;;;;4979251;28;20065;-74
2022/08/09 10:19:36;;;;;;;1.80;0.22;;;25.70;26.60;;;;;;4980173;28;20054;-74
2022/08/09 10:22:02;;;;;;;0.00;0.00;;;25.70;23.60;;;;;;4979481;28;20050;-73
2022/08/09 10:24:28;;;;;;;0.55;0.40;;;25.80;30.90;;;;;;4978418;28;20038;-73
2022/08/09 10:26:55;;;;;;;3.63;0.75;;;25.80;22.10;;;;;;4979817;28;20127;-74
2022/08/09 10:29:22;;;;;;;0.10;0.10;;;26.10;21.10;;;;;;4977899;28;20051;-74
2022/08/09 10:31:48;;;;;;;0.32;0.20;;;26.30;17.30;;;;;;4979047;28;20058;-73
2022/08/09 10:34:15;;;;;;;0.00;0.00;;;26.00;21.30;;;;;;4980164;28;20094;-73
2022/08/09 10:36:41;;;;;;;0.10;0.10;;;26.40;18.10;;;;;;4978775;28;20413;-73
2022/08/09 10:39:07;;;;;;;0.00;0.00;;;25.50;13.10;;;;;;4979048;28;20053;-73
2022/08/09 10:41:34;;;;;;;0.10;0.10;;;25.40;14.80;;;;;;4978685;28;20046;-75
2022/08/09 10:44:01;;;;;;;0.00;0.00;;;25.40;25.20;;;;;;4978061;28;20043;-74
2022/08/09 10:46:45;;;;;;;25.75;4.35;;;26.00;21.70;;;;;;4979236;28;20047;-73
2022/08/09 10:49:16;;;;;;;0.38;0.32;;;26.20;21.50;;;;;;4980533;28;20038;-73
2022/08/09 10:52:00;;;;;;;0.38;0.25;;;26.30;15.30;;;;;;4978982;28;20078;-74
2022/08/09 10:54:26;;;;;;;2.13;0.38;;;26.00;16.00;;;;;;4979944;28;20045;-74
2022/08/09 10:57:12;;;;;;;0.00;0.00;;;26.10;21.00;;;;;;4978507;28;20055;-74
2022/08/09 10:59:39;;;;;;;0.00;0.00;;;26.40;23.00;;;;;;4980081;28;20127;-73
2022/08/09 11:02:07;;;;;;;1.00;0.40;;;26.80;18.10;;;;;;4979735;28;20053;-73
2022/08/09 11:04:34;;;;;;;0.10;0.10;;;27.10;14.40;;;;;;4978398;28;20038;-73
2022/08/09 11:07:00;;;;;;;0.00;0.00;;;27.20;17.20;;;;;;4977990;28;20078;-73
2022/08/09 11:09:48;;;;;;;5.90;0.10;;;27.30;11.90;;;;;;4979991;28;20039;-73
2022/08/09 11:12:27;;;;;;;0.17;0.17;;;27.70;8.60;;;;;;4979743;28;20054;-73
2022/08/09 11:14:55;;;;;;;0.00;0.00;;;27.70;8.30;;;;;;4980984;28;20536;-75
2022/08/09 11:17:21;;;;;;;0.00;0.00;;;27.70;9.80;;;;;;4981960;28;20085;-74
2022/08/09 11:19:53;;;;;;;0.38;0.10;;;28.00;8.10;;;;;;4980176;28;20047;-73
2022/08/09 11:22:19;;;;;;;0.00;0.00;;;27.80;6.00;;;;;;4979864;28;20517;-73
2022/08/09 11:25:11;;;;;;;10.90;0.40;;;27.70;6.70;;;;;;4978495;28;20039;-73
2022/08/09 11:27:43;;;;;;;0.00;0.00;;;27.60;6.50;;;;;;4979258;28;20042;-74
2022/08/09 11:30:10;;;;;;;1.92;0.45;;;27.90;9.60;;;;;;4979828;28;20047;-73
2022/08/09 11:32:46;;;;;;;0.20;0.10;;;27.70;6.10;;;;;;4978882;28;20046;-73
2022/08/09 11:35:16;;;;;;;;;;;28.10;4.30;;;;;;4978446;28;20225;-73
2022/08/09 11:37:44;;;;;;;0.10;0.10;;;28.10;6.20;;;;;;4978119;28;20407;-74
2022/08/09 11:40:31;;;;;;;0.00;0.00;;;27.20;8.10;;;;;;4977508;28;20051;-74
2022/08/09 11:42:59;;;;;;;0.88;0.05;;;28.70;7.90;;;;;;4978397;28;20050;-73
2022/08/09 11:45:31;;;;;;;0.35;0.20;;;29.30;3.20;;;;;;4976922;28;20046;-74
2022/08/09 11:47:59;;;;;;;0.00;0.00;;;30.10;1.00;;;;;;4977159;28;20047;-73
2022/08/09 11:50:25;;;;;;;0.10;0.10;;;30.80;1.00;;;;;;4976493;28;20047;-74
2022/08/09 11:52:57;;;;;;;0.00;0.00;;;30.90;1.00;;;;;;4977065;28;20051;-73
2022/08/09 11:55:31;;;;;;;0.08;0.00;;;29.60;1.00;;;;;;4977484;28;20130;-74
2022/08/09 11:58:16;;;;;;;1.52;0.65;;;28.50;1.00;;;;;;4978193;28;20138;-73
2022/08/09 12:00:51;;;;;;;0.00;0.00;;;28.60;1.60;;;;;;4967785;28;20104;-74
2022/08/09 12:03:19;;;;;;;0.00;0.00;;;28.20;4.60;;;;;;4977458;28;20074;-74
2022/08/09 12:05:46;;;;;;;0.00;0.00;;;28.60;3.50;;;;;;4977555;28;20046;-73
2022/08/09 12:08:13;;;;;;;0.13;0.10;;;29.40;1.00;;;;;;4977670;28;20034;-74
2022/08/09 12:10:47;;;;;;;0.00;0.00;;;29.50;1.00;;;;;;4978493;28;20383;-74
2022/08/09 12:13:36;;;;;;;0.03;0.03;;;29.60;1.00;;;;;;4981906;28;20057;-74
2022/08/09 12:16:06;;;;;;;0.00;0.00;;;29.00;1.00;;;;;;4980451;28;20054;-75
2022/08/09 12:18:32;;;;;;;0.00;0.00;;;28.80;1.00;;;;;;4980853;28;20042;-73
2022/08/09 12:21:00;;;;;;;0.08;0.00;;;29.20;1.00;;;;;;4980850;28;20113;-74
2022/08/09 12:23:26;;;;;;;0.00;0.00;;;29.40;1.00;;;;;;4981264;28;20049;-74
2022/08/09 12:25:53;;;;;;;0.00;0.00;;;29.90;1.00;;;;;;4979829;28;20114;-74
2022/08/09 12:28:21;;;;;;;0.00;0.00;;;30.20;1.00;;;;;;4980228;28;20061;-74
2022/08/09 12:30:47;;;;;;;0.43;0.30;;;30.10;1.00;;;;;;4980405;28;20043;-74
2022/08/09 12:33:14;;;;;;;0.00;0.00;;;30.60;1.00;;;;;;4981667;28;20043;-75
2022/08/09 12:35:40;;;;;;;0.00;0.00;;;31.00;1.00;;;;;;4978581;28;20047;-74
2022/08/09 12:38:24;;;;;;;0.00;0.00;;;31.40;1.00;;;;;;4980404;28;20121;-74
2022/08/09 12:40:51;;;;;;;0.03;0.03;;;30.60;1.00;;;;;;4979654;28;20050;-74
2022/08/09 12:43:23;;;;;;;0.00;0.00;;;29.30;1.00;;;;;;4979765;28;20047;-74
2022/08/09 12:45:50;;;;;;;0.65;0.20;;;28.30;1.00;;;;;;4978859;28;20038;-74
2022/08/09 12:48:16;;;;;;;0.00;0.00;;;29.00;1.00;;;;;;4997237;28;20097;-73
2022/08/09 12:50:43;;;;;;;0.00;0.00;;;29.30;1.00;;;;;;4983403;28;20054;-74
2022/08/09 12:53:35;;;;;;;0.00;0.00;;;28.80;1.00;;;;;;4980731;28;20094;-74
2022/08/09 12:56:08;;;;;;;0.00;0.00;;;29.10;1.00;;;;;;4977169;28;20043;-74